Time;durP1;ratioP1;P1;durP2;ratioP2;P2;SDS_P1;SDS_P2;PMS_P1;PMS_P2;Temp;Humidity;BMP_temperature;BMP_pressure;BME280_temperature;BME280_humidity;BME280_pressure;Samples;Min_cycle;Max_cycle;Signal;HPM_P1;HPM_P2
2022/01/06 00:00:23;;;;;;;30.00;6.25;;;;;;;2.60;100.00;101362.88;5059739;28;20040;-72
2022/01/06 00:02:49;;;;;;;33.38;6.00;;;;;;;2.53;100.00;101356.81;5060032;28;20045;-74
2022/01/06 00:05:14;;;;;;;33.67;6.60;;;;;;;2.56;100.00;101356.34;5060051;28;20152;-72
2022/01/06 00:07:40;;;;;;;39.40;6.82;;;;;;;2.50;100.00;101357.25;5060032;28;20618;-72
2022/01/06 00:10:11;;;;;;;31.33;6.63;;;;;;;2.56;100.00;101361.72;5059848;28;20098;-73
2022/01/06 00:15:45;;;;;;;33.83;6.45;;;;;;;2.53;100.00;101370.28;5059218;28;20118;-73
2022/01/06 00:18:17;;;;;;;43.30;6.50;;;;;;;2.54;100.00;101379.97;5059479;28;20037;-72
2022/01/06 00:25:53;;;;;;;33.80;6.65;;;;;;;2.56;100.00;101367.09;5063605;28;20116;-74
2022/01/06 00:28:19;;;;;;;48.00;6.22;;;;;;;2.53;100.00;101372.13;5062153;28;20534;-72
2022/01/06 00:30:44;;;;;;;43.45;6.40;;;;;;;2.52;100.00;101373.19;5063545;28;20056;-74
2022/01/06 00:33:10;;;;;;;49.17;6.40;;;;;;;2.59;100.00;101376.56;5063200;28;20152;-73
2022/01/06 00:35:37;;;;;;;39.65;6.05;;;;;;;2.51;100.00;101380.44;5054271;28;20083;-73
2022/01/06 00:38:05;;;;;;;32.60;5.88;;;;;;;2.56;100.00;101377.88;5043343;28;20473;-71
2022/01/06 00:40:30;;;;;;;39.97;6.32;;;;;;;2.49;100.00;101377.16;5043823;28;20055;-74
2022/01/06 00:42:56;;;;;;;26.90;6.35;;;;;;;2.48;100.00;101376.34;5044053;28;20037;-72
2022/01/06 00:45:21;;;;;;;38.47;6.28;;;;;;;2.47;100.00;101379.25;5044105;28;20401;-72
2022/01/06 00:47:46;;;;;;;38.08;7.32;;;;;;;2.41;100.00;101374.84;5041680;28;20049;-73
2022/01/06 00:50:12;;;;;;;40.97;6.43;;;;;;;2.36;100.00;101382.81;5057910;28;20072;-73
2022/01/06 00:52:37;;;;;;;40.25;6.63;;;;;;;2.38;100.00;101383.38;5063492;28;20045;-72
2022/01/06 00:55:04;;;;;;;43.35;6.78;;;;;;;2.42;100.00;101387.25;5063909;28;20063;-74
2022/01/06 00:57:29;;;;;;;36.78;7.43;;;;;;;2.40;100.00;101386.66;5062671;28;20048;-72
2022/01/06 00:59:55;;;;;;;38.08;6.00;;;;;;;2.38;100.00;101396.84;5062845;28;20121;-74
2022/01/06 01:02:22;;;;;;;37.67;5.10;;;;;;;2.34;100.00;101395.69;5062047;28;20366;-73
2022/01/06 01:04:47;;;;;;;41.63;6.38;;;;;;;2.39;100.00;101393.09;5062631;28;20040;-72
2022/01/06 01:07:13;;;;;;;46.42;6.53;;;;;;;2.31;100.00;101393.47;5062958;28;20052;-73
2022/01/06 01:09:39;;;;;;;34.92;7.05;;;;;;;2.25;100.00;101398.72;5059946;28;20518;-73
2022/01/06 01:12:04;;;;;;;50.67;6.93;;;;;;;2.29;100.00;101398.25;5061857;28;20040;-71
2022/01/06 01:14:33;;;;;;;39.42;6.57;;;;;;;2.28;100.00;101402.00;5062434;28;20139;-73
2022/01/06 01:17:02;;;;;;;36.47;6.13;;;;;;;2.32;100.00;101403.16;5062090;28;20110;-73
2022/01/06 01:19:29;;;;;;;37.67;6.93;;;;;;;2.40;100.00;101406.31;5060513;28;20048;-73
2022/01/06 01:21:55;;;;;;;41.85;7.35;;;;;;;2.35;100.00;101403.50;5062353;28;20044;-74
2022/01/06 01:24:22;;;;;;;31.45;5.80;;;;;;;2.33;100.00;101400.25;5062754;28;20040;-72
2022/01/06 01:26:47;;;;;;;36.28;7.05;;;;;;;2.23;100.00;101408.88;5063514;28;20101;-73
2022/01/06 01:29:18;;;;;;;33.10;5.65;;;;;;;2.29;100.00;101417.09;5061541;28;20032;-73
2022/01/06 01:31:52;;;;;;;27.05;5.50;;;;;;;2.25;100.00;101412.19;5053102;28;20072;-73
2022/01/06 01:34:26;;;;;;;35.20;6.80;;;;;;;2.18;100.00;101419.56;5049875;28;20028;-72
2022/01/06 01:36:55;;;;;;;35.00;5.32;;;;;;;2.18;100.00;101424.94;5052410;28;20075;-73
2022/01/06 01:39:21;;;;;;;29.42;5.88;;;;;;;2.12;100.00;101431.22;5045012;28;20394;-72
2022/01/06 01:41:47;;;;;;;37.17;6.65;;;;;;;2.05;100.00;101438.59;5050500;28;20086;-72
2022/01/06 01:44:15;;;;;;;38.22;7.93;;;;;;;2.02;100.00;101441.75;5043369;28;20118;-74
2022/01/06 01:46:44;;;;;;;42.35;6.40;;;;;;;2.08;100.00;101451.59;5042732;28;20056;-72
2022/01/06 01:51:50;;;;;;;43.85;6.65;;;;;;;1.94;100.00;101450.97;5062888;28;20454;-74
2022/01/06 01:54:17;;;;;;;34.40;6.15;;;;;;;1.96;100.00;101453.44;5062204;28;20853;-73
2022/01/06 01:56:43;;;;;;;42.28;8.00;;;;;;;2.03;100.00;101460.34;5061914;28;20032;-72
2022/01/06 01:59:09;;;;;;;33.78;5.97;;;;;;;1.96;100.00;101465.00;5059650;28;20041;-73
2022/01/06 02:01:35;;;;;;;27.80;6.25;;;;;;;2.02;100.00;101471.34;5061581;28;20479;-73
2022/01/06 02:04:01;;;;;;;34.08;6.68;;;;;;;2.04;100.00;101474.63;5061641;28;20089;-73
2022/01/06 02:06:26;;;;;;;54.45;6.25;;;;;;;1.96;100.00;101473.09;5060778;28;20046;-74
2022/01/06 02:08:54;;;;;;;42.28;6.50;;;;;;;1.93;100.00;101475.44;5062229;28;20075;-72
2022/01/06 02:11:20;;;;;;;30.75;5.40;;;;;;;1.98;100.00;101478.25;5061456;28;20051;-72
2022/01/06 02:13:50;;;;;;;30.85;5.05;;;;;;;2.02;100.00;101485.59;5061603;28;20044;-72
2022/01/06 02:16:25;;;;;;;44.35;5.20;;;;;;;1.98;100.00;101483.63;5060276;28;20121;-72
2022/01/06 02:18:51;;;;;;;39.33;6.20;;;;;;;1.88;100.00;101486.84;5061292;28;20071;-73
2022/01/06 02:21:17;;;;;;;40.78;6.53;;;;;;;1.95;100.00;101486.75;5061006;28;20048;-74
2022/01/06 02:23:43;;;;;;;40.45;5.50;;;;;;;1.87;100.00;101487.09;5061236;28;20078;-72
2022/01/06 02:26:09;;;;;;;24.83;4.75;;;;;;;1.78;100.00;101490.13;5059685;28;20048;-75
2022/01/06 02:28:35;;;;;;;39.30;5.80;;;;;;;1.90;100.00;101486.66;5043618;28;20048;-73
2022/01/06 02:31:00;;;;;;;40.25;6.07;;;;;;;1.79;100.00;101497.13;5043478;28;20120;-72
2022/01/06 02:33:27;;;;;;;28.60;5.05;;;;;;;1.87;100.00;101497.88;5047112;28;20458;-75
2022/01/06 02:35:54;;;;;;;30.08;5.35;;;;;;;1.91;100.00;101499.84;5057515;28;20041;-73
2022/01/06 02:38:20;;;;;;;27.40;5.38;;;;;;;1.77;100.00;101498.41;5045052;28;20287;-72
2022/01/06 02:40:46;;;;;;;28.17;5.05;;;;;;;1.74;100.00;101494.28;5056515;28;20390;-72
2022/01/06 02:43:15;;;;;;;38.08;5.60;;;;;;;1.68;100.00;101495.22;5048527;28;20041;-72
2022/01/06 02:45:41;;;;;;;29.00;5.05;;;;;;;1.60;100.00;101495.56;5045596;28;20079;-72
2022/01/06 02:48:09;;;;;;;35.15;4.80;;;;;;;1.62;100.00;101485.38;5047008;28;20045;-73
2022/01/06 02:50:46;;;;;;;22.90;4.97;;;;;;;1.63;100.00;101496.94;5057285;28;20037;-72
2022/01/06 02:53:13;;;;;;;30.20;5.20;;;;;;;1.59;100.00;101493.91;5048056;28;20050;-75
2022/01/06 02:55:41;;;;;;;48.88;6.22;;;;;;;1.52;100.00;101490.50;5049187;28;20036;-73
2022/01/06 02:58:07;;;;;;;40.65;6.00;;;;;;;1.58;100.00;101494.94;5046823;28;20041;-74
2022/01/06 03:00:35;;;;;;;28.00;4.97;;;;;;;1.45;100.00;101489.75;5047604;28;20041;-73
2022/01/06 03:03:01;;;;;;;42.33;5.90;;;;;;;1.58;100.00;101494.94;5058255;28;20041;-73
2022/01/06 03:05:26;;;;;;;29.08;6.25;;;;;;;1.54;100.00;101499.13;5067759;28;20044;-75
2022/01/06 03:07:52;;;;;;;27.42;5.20;;;;;;;1.59;100.00;101497.41;5067359;28;20036;-74
2022/01/06 03:10:17;;;;;;;39.17;6.70;;;;;;;1.55;100.00;101500.78;5067910;28;20060;-74
2022/01/06 03:12:44;;;;;;;38.50;5.95;;;;;;;1.53;100.00;101510.94;5068680;28;20217;-73
2022/01/06 03:15:15;;;;;;;30.38;6.13;;;;;;;1.49;100.00;101517.81;5066475;28;20056;-72
2022/01/06 03:17:43;;;;;;;30.63;4.75;;;;;;;1.36;100.00;101519.59;5068019;28;20040;-73
2022/01/06 03:20:12;;;;;;;37.78;5.28;;;;;;;1.43;100.00;101516.03;5067738;28;20063;-73
2022/01/06 03:22:37;;;;;;;37.58;4.85;;;;;;;1.51;100.00;101516.56;5066911;28;20063;-73
2022/01/06 03:25:04;;;;;;;37.90;6.20;;;;;;;1.59;100.00;101523.47;5068508;28;20036;-75
2022/01/06 03:27:30;;;;;;;39.50;5.57;;;;;;;1.65;100.00;101522.56;5070269;28;20060;-73
2022/01/06 03:29:55;;;;;;;30.75;5.07;;;;;;;1.62;100.00;101517.63;5071370;28;20056;-72
2022/01/06 03:32:21;;;;;;;46.40;5.57;;;;;;;1.61;100.00;101521.38;5072365;28;20067;-73
2022/01/06 03:34:48;;;;;;;24.63;5.30;;;;;;;1.67;100.00;101519.66;5073531;28;20075;-74
2022/01/06 03:37:14;;;;;;;32.75;5.25;;;;;;;1.69;100.00;101523.75;5070515;28;20055;-74
2022/01/06 03:39:42;;;;;;;29.45;5.45;;;;;;;1.68;100.00;101524.78;5072531;28;20378;-73
2022/01/06 03:42:08;;;;;;;28.63;6.18;;;;;;;1.65;100.00;101527.94;5069185;28;20048;-73
2022/01/06 03:44:34;;;;;;;33.50;6.47;;;;;;;1.70;100.00;101536.13;5069002;28;20044;-72
2022/01/06 03:46:59;;;;;;;31.35;5.10;;;;;;;1.69;100.00;101534.50;5067070;28;20044;-72
2022/01/06 03:49:25;;;;;;;33.30;4.88;;;;;;;1.65;100.00;101532.50;5066549;28;20040;-74
2022/01/06 03:51:50;;;;;;;24.33;6.20;;;;;;;1.68;100.00;101538.22;5064225;28;20044;-73
2022/01/06 03:54:16;;;;;;;31.20;4.85;;;;;;;1.67;100.00;101539.28;5061394;28;20048;-73
2022/01/06 03:56:41;;;;;;;31.27;5.85;;;;;;;1.69;100.00;101545.25;5055402;28;20514;-73
2022/01/06 03:59:07;;;;;;;40.20;5.55;;;;;;;1.70;100.00;101546.09;5041640;28;20067;-73
2022/01/06 04:01:33;;;;;;;33.67;5.32;;;;;;;1.54;100.00;101547.50;5040800;28;20118;-73
2022/01/06 04:03:59;;;;;;;25.98;5.43;;;;;;;1.55;100.00;101554.53;5060155;28;20076;-73
2022/01/06 04:06:25;;;;;;;24.40;5.18;;;;;;;1.55;100.00;101557.22;5059205;28;20128;-72
2022/01/06 04:08:50;;;;;;;27.63;5.53;;;;;;;1.57;100.00;101549.75;5060940;28;20044;-73
2022/01/06 04:11:16;;;;;;;29.15;5.25;;;;;;;1.47;100.00;101550.28;5060264;28;20110;-74
2022/01/06 04:13:41;;;;;;;39.65;4.72;;;;;;;1.45;100.00;101556.94;5058283;28;20094;-73
2022/01/06 04:16:09;;;;;;;27.88;4.68;;;;;;;1.36;100.00;101565.28;5060454;28;20055;-73
2022/01/06 04:18:36;;;;;;;32.80;5.15;;;;;;;1.40;100.00;101562.16;5060240;28;20044;-73
2022/01/06 04:21:01;;;;;;;29.02;4.65;;;;;;;1.29;100.00;101564.56;5059616;28;20479;-73
2022/01/06 04:23:27;;;;;;;24.40;4.68;;;;;;;1.33;100.00;101573.81;5060065;28;20032;-74
2022/01/06 04:25:52;;;;;;;39.15;5.45;;;;;;;1.41;100.00;101580.75;5058889;28;20482;-73
2022/01/06 04:28:18;;;;;;;30.77;4.63;;;;;;;1.36;100.00;101578.72;5059916;28;20095;-72
2022/01/06 04:30:44;;;;;;;31.88;4.57;;;;;;;1.34;100.00;101586.22;5058307;28;20066;-73
2022/01/06 04:33:09;;;;;;;30.08;4.55;;;;;;;1.41;100.00;101585.31;5059740;28;20295;-73
2022/01/06 04:35:34;;;;;;;30.05;5.28;;;;;;;1.42;100.00;101585.06;5054874;28;20041;-72
2022/01/06 04:38:00;;;;;;;40.53;5.30;;;;;;;1.34;100.00;101593.47;5059584;28;20408;-73
2022/01/06 04:40:26;;;;;;;45.35;6.00;;;;;;;1.38;100.00;101588.44;5058072;28;20119;-73
2022/01/06 04:42:51;;;;;;;31.08;5.47;;;;;;;1.29;100.00;101588.75;5060400;28;20036;-74
2022/01/06 04:45:17;;;;;;;29.13;4.63;;;;;;;1.36;100.00;101589.47;5060582;28;20047;-72
2022/01/06 04:47:42;;;;;;;33.33;6.00;;;;;;;1.27;100.00;101600.75;5058792;28;20044;-73
2022/01/06 04:50:08;;;;;;;29.88;5.50;;;;;;;1.26;100.00;101599.13;5060538;28;20587;-72
2022/01/06 04:52:34;;;;;;;27.90;5.13;;;;;;;1.22;100.00;101596.06;5059569;28;20048;-73
2022/01/06 04:54:59;;;;;;;38.50;5.18;;;;;;;1.21;100.00;101598.97;5059651;28;20048;-72
2022/01/06 04:57:25;;;;;;;30.88;5.45;;;;;;;1.29;100.00;101599.50;5056931;28;20117;-73
2022/01/06 04:59:50;;;;;;;27.90;5.03;;;;;;;1.32;100.00;101599.03;5037163;28;20148;-73
2022/01/06 05:02:16;;;;;;;28.95;4.72;;;;;;;1.26;100.00;101613.38;5044194;28;20040;-72
2022/01/06 05:04:41;;;;;;;25.73;5.50;;;;;;;1.29;100.00;101610.22;5057868;28;20072;-72
2022/01/06 05:07:06;;;;;;;33.60;5.18;;;;;;;1.31;100.00;101608.16;5059322;28;20044;-74
2022/01/06 05:09:32;;;;;;;27.45;4.88;;;;;;;1.34;100.00;101606.91;5058262;28;20056;-73
2022/01/06 05:11:58;;;;;;;36.55;4.93;;;;;;;1.30;100.00;101614.56;5062298;28;20063;-73
2022/01/06 05:14:24;;;;;;;37.50;5.68;;;;;;;1.24;100.00;101614.63;5061528;28;20053;-73
2022/01/06 05:16:49;;;;;;;40.88;5.30;;;;;;;1.26;100.00;101620.63;5062170;28;20110;-73
2022/01/06 05:19:15;;;;;;;35.78;5.53;;;;;;;1.19;100.00;101620.66;5063245;28;20037;-72
2022/01/06 05:21:40;;;;;;;32.83;5.68;;;;;;;1.13;100.00;101627.78;5063363;28;20040;-73
2022/01/06 05:24:12;;;;;;;36.55;5.65;;;;;;;1.16;100.00;101631.03;5063271;28;20070;-73
2022/01/06 05:26:38;;;;;;;38.93;5.57;;;;;;;1.13;100.00;101632.28;5061889;28;20040;-72
2022/01/06 05:29:06;;;;;;;30.15;5.90;;;;;;;1.07;100.00;101643.91;5062861;28;20450;-73
2022/01/06 05:31:32;;;;;;;26.77;6.32;;;;;;;1.07;100.00;101638.56;5050344;28;20041;-73
2022/01/06 05:33:57;;;;;;;34.97;5.25;;;;;;;1.02;100.00;101638.38;5042650;28;20159;-74
2022/01/06 05:36:23;;;;;;;30.95;6.30;;;;;;;1.05;100.00;101640.66;5043381;28;20047;-72
2022/01/06 05:38:48;;;;;;;43.20;5.97;;;;;;;0.97;100.00;101649.00;5040986;28;20444;-72
2022/01/06 05:41:13;;;;;;;29.35;5.13;;;;;;;1.02;100.00;101649.13;5042645;28;20045;-72
2022/01/06 05:43:39;;;;;;;34.30;6.20;;;;;;;0.99;100.00;101657.63;5042109;28;20036;-73
2022/01/06 05:46:05;;;;;;;21.90;4.70;;;;;;;0.97;100.00;101649.81;5042017;28;20630;-72
2022/01/06 05:48:30;;;;;;;27.02;5.47;;;;;;;0.95;100.00;101653.75;5042222;28;20048;-73
2022/01/06 05:50:55;;;;;;;30.52;5.20;;;;;;;1.00;100.00;101653.91;5042027;28;20044;-72
2022/01/06 05:53:21;;;;;;;38.28;6.00;;;;;;;0.94;100.00;101657.47;5039833;28;20102;-73
2022/01/06 05:55:47;;;;;;;33.00;6.05;;;;;;;0.86;100.00;101659.38;5040103;28;20430;-73
2022/01/06 05:58:12;;;;;;;32.17;5.47;;;;;;;0.81;100.00;101661.91;5042122;28;20049;-72
2022/01/06 06:00:38;;;;;;;32.70;5.55;;;;;;;0.83;100.00;101659.81;5040721;28;20575;-73
2022/01/06 06:03:03;;;;;;;32.22;5.60;;;;;;;0.83;100.00;101659.81;5051992;28;20090;-73
2022/01/06 06:05:29;;;;;;;37.55;6.40;;;;;;;0.84;100.00;101666.84;5042161;28;20075;-73
2022/01/06 06:07:54;;;;;;;38.47;5.85;;;;;;;0.88;100.00;101673.44;5045724;28;20033;-73
2022/01/06 06:10:20;;;;;;;26.88;5.05;;;;;;;0.93;100.00;101682.69;5046721;28;20218;-70
2022/01/06 06:12:45;;;;;;;32.00;5.10;;;;;;;0.85;100.00;101678.41;5049507;28;20048;-74
2022/01/06 06:15:11;;;;;;;36.67;6.00;;;;;;;0.87;100.00;101682.53;5040522;28;20053;-73
2022/01/06 06:17:36;;;;;;;36.40;6.22;;;;;;;0.81;100.00;101691.44;5050375;28;20465;-74
2022/01/06 06:20:03;;;;;;;34.28;5.20;;;;;;;0.81;100.00;101694.13;5043514;28;20036;-73
2022/01/06 06:22:28;;;;;;;35.53;5.10;;;;;;;0.88;100.00;101694.91;5045578;28;20036;-73
2022/01/06 06:24:53;;;;;;;21.25;4.38;;;;;;;0.83;100.00;101683.16;5042094;28;20044;-73
2022/01/06 06:27:19;;;;;;;41.53;5.22;;;;;;;0.76;100.00;101685.09;5046162;28;20672;-74
2022/01/06 06:29:44;;;;;;;27.70;5.55;;;;;;;0.74;100.00;101700.59;5039488;28;20055;-73
2022/01/06 06:32:09;;;;;;;29.33;5.57;;;;;;;0.75;100.00;101692.31;5041954;28;20131;-73
2022/01/06 06:34:35;;;;;;;23.67;5.97;;;;;;;0.73;100.00;101702.47;5051190;28;20072;-73
2022/01/06 06:37:01;;;;;;;34.40;5.38;;;;;;;0.64;100.00;101712.63;5043105;28;20049;-73
2022/01/06 06:39:26;;;;;;;32.70;5.97;;;;;;;0.67;100.00;101708.69;5028261;28;20045;-73
2022/01/06 06:41:51;;;;;;;25.70;5.25;;;;;;;0.55;100.00;101710.41;5054042;28;20053;-75
2022/01/06 06:44:17;;;;;;;36.75;6.63;;;;;;;0.55;100.00;101711.22;5046662;28;20043;-73
2022/01/06 06:46:42;;;;;;;33.65;6.78;;;;;;;0.55;100.00;101721.13;5045739;28;20041;-73
2022/01/06 06:49:08;;;;;;;28.25;5.55;;;;;;;0.53;100.00;101723.22;5046583;28;20039;-73
2022/01/06 06:51:33;;;;;;;43.63;6.97;;;;;;;0.64;100.00;101725.22;5045500;28;20499;-72
2022/01/06 06:53:58;;;;;;;31.52;6.20;;;;;;;0.65;100.00;101725.00;5042914;28;20040;-72
2022/01/06 06:56:24;;;;;;;41.05;6.30;;;;;;;0.66;100.00;101725.81;5051226;28;20040;-73
2022/01/06 06:58:49;;;;;;;33.15;7.07;;;;;;;0.59;100.00;101733.09;5059624;28;20495;-74
2022/01/06 07:01:15;;;;;;;27.52;5.82;;;;;;;0.74;100.00;101736.31;5046025;28;20340;-74
2022/01/06 07:03:40;;;;;;;27.92;5.93;;;;;;;0.78;100.00;101731.31;5046276;28;20123;-73
2022/01/06 07:06:06;;;;;;;30.30;6.80;;;;;;;0.88;100.00;101748.63;5051683;28;20404;-72
2022/01/06 07:08:31;;;;;;;37.92;6.50;;;;;;;0.84;100.00;101747.41;5046829;28;20041;-73
2022/01/06 07:10:57;;;;;;;37.05;7.65;;;;;;;0.80;100.00;101751.56;5044850;28;20044;-74
2022/01/06 07:13:23;;;;;;;31.60;6.40;;;;;;;0.78;100.00;101752.81;5048220;28;20143;-72
2022/01/06 07:15:48;;;;;;;33.70;6.70;;;;;;;0.69;100.00;101754.91;5042828;28;20059;-73
2022/01/06 07:18:14;;;;;;;34.47;6.82;;;;;;;0.73;100.00;101760.66;5045874;28;20082;-72
2022/01/06 07:20:39;;;;;;;37.80;6.72;;;;;;;0.71;100.00;101758.22;5046144;28;20036;-74
2022/01/06 07:23:05;;;;;;;34.72;6.18;;;;;;;0.67;100.00;101759.69;5047106;28;20452;-73
2022/01/06 07:25:30;;;;;;;26.50;6.35;;;;;;;0.65;100.00;101764.44;5044127;28;20449;-72
2022/01/06 07:27:56;;;;;;;36.67;6.78;;;;;;;0.72;100.00;101770.59;5043141;28;20357;-73
2022/01/06 07:30:22;;;;;;;39.60;6.88;;;;;;;0.59;100.00;101776.03;5047950;28;20396;-73
2022/01/06 07:32:49;;;;;;;29.02;6.50;;;;;;;0.57;100.00;101772.75;5044705;28;20514;-74
2022/01/06 07:35:18;;;;;;;29.35;5.95;;;;;;;0.54;100.00;101779.34;5043672;28;20105;-73
2022/01/06 07:37:43;;;;;;;40.78;7.30;;;;;;;0.37;100.00;101784.38;5047303;28;20036;-74
2022/01/06 07:40:09;;;;;;;29.58;6.20;;;;;;;0.37;100.00;101792.44;5047492;28;20041;-74
2022/01/06 07:42:36;;;;;;;29.02;6.93;;;;;;;0.40;100.00;101797.38;5044645;28;20045;-73
2022/01/06 07:45:03;;;;;;;32.88;6.63;;;;;;;0.35;100.00;101797.22;5039990;28;20056;-73
2022/01/06 07:47:31;;;;;;;25.83;6.63;;;;;;;0.23;100.00;101798.88;5043869;28;20076;-72
2022/01/06 07:49:56;;;;;;;34.63;6.85;;;;;;;0.26;100.00;101795.78;5048322;28;20044;-72
2022/01/06 07:52:22;;;;;;;32.83;6.43;;;;;;;0.35;100.00;101797.22;5039663;28;20040;-73
2022/01/06 07:54:48;;;;;;;34.15;6.68;;;;;;;0.32;100.00;101807.50;5042898;28;20461;-73
2022/01/06 07:57:14;;;;;;;29.67;6.80;;;;;;;0.19;100.00;101800.34;5040118;28;20103;-73
2022/01/06 07:59:40;;;;;;;30.20;7.53;;;;;;;0.35;100.00;101807.94;5048750;28;20039;-72
2022/01/06 08:02:07;;;;;;;29.35;6.93;;;;;;;0.31;100.00;101806.69;5043754;28;20040;-74
2022/01/06 08:04:33;;;;;;;38.33;7.90;;;;;;;0.36;100.00;101809.56;5049001;28;20495;-72
2022/01/06 08:06:59;;;;;;;25.65;6.55;;;;;;;0.42;100.00;101813.28;5045215;28;20045;-73
2022/01/06 08:09:25;;;;;;;26.38;7.40;;;;;;;0.39;100.00;101811.00;5042648;28;20039;-74
2022/01/06 08:11:50;;;;;;;29.17;7.75;;;;;;;0.41;100.00;101815.13;5046182;28;20572;-73
2022/01/06 08:14:15;;;;;;;20.10;7.05;;;;;;;0.45;100.00;101819.03;5045645;28;20037;-72
2022/01/06 08:16:41;;;;;;;28.05;7.22;;;;;;;0.39;100.00;101819.88;5043116;28;20544;-72
2022/01/06 08:19:06;;;;;;;34.92;7.65;;;;;;;0.49;100.00;101821.28;5050591;28;20032;-72
2022/01/06 08:21:32;;;;;;;24.42;7.75;;;;;;;0.50;100.00;101817.59;5044087;28;20045;-73
2022/01/06 08:23:57;;;;;;;35.33;8.98;;;;;;;0.27;100.00;101826.13;5042078;28;20135;-74
2022/01/06 08:26:23;;;;;;;36.33;7.82;;;;;;;0.28;100.00;101820.53;5038396;28;20124;-72
2022/01/06 08:28:48;;;;;;;40.13;7.93;;;;;;;0.36;100.00;101819.50;5041533;28;20139;-72
2022/01/06 08:31:17;;;;;;;33.03;8.05;;;;;;;0.47;100.00;101820.66;5039124;28;20426;-73
2022/01/06 08:33:43;;;;;;;34.72;8.98;;;;;;;0.47;100.00;101821.53;5045117;28;20398;-71
2022/01/06 08:36:08;;;;;;;33.38;8.38;;;;;;;0.55;100.00;101828.50;5039653;28;20082;-72
2022/01/06 08:38:34;;;;;;;29.55;8.20;;;;;;;0.56;100.00;101825.59;5046733;28;20048;-73
2022/01/06 08:40:59;;;;;;;34.70;8.23;;;;;;;0.65;100.00;101826.19;5046204;28;20043;-73
2022/01/06 08:43:27;;;;;;;32.75;8.55;;;;;;;0.79;100.00;101830.47;5044996;28;20037;-72
2022/01/06 08:45:57;;;;;;;31.42;7.93;;;;;;;0.87;100.00;101832.91;5044639;28;20052;-73
2022/01/06 08:48:26;;;;;;;29.88;8.95;;;;;;;0.90;100.00;101835.16;5047372;28;20408;-74
2022/01/06 08:50:52;;;;;;;29.70;9.25;;;;;;;1.02;100.00;101832.63;5046257;28;20055;-73
2022/01/06 08:53:18;;;;;;;27.83;9.85;;;;;;;1.01;100.00;101833.63;5042822;28;20056;-74
2022/01/06 08:55:47;;;;;;;47.13;10.25;;;;;;;0.97;100.00;101834.28;5044491;28;20037;-73
2022/01/06 08:58:14;;;;;;;28.48;8.82;;;;;;;1.07;100.00;101835.44;5053662;28;20032;-73
2022/01/06 09:00:40;;;;;;;41.08;9.43;;;;;;;1.00;100.00;101837.38;5042311;28;20037;-74
2022/01/06 09:03:07;;;;;;;37.53;8.38;;;;;;;0.86;100.00;101841.97;5045398;28;20119;-73
2022/01/06 09:05:33;;;;;;;30.95;8.27;;;;;;;1.11;100.00;101844.75;5041239;28;20053;-74
2022/01/06 09:07:59;;;;;;;33.72;9.82;;;;;;;1.36;100.00;101847.47;5043007;28;20067;-72
2022/01/06 09:10:29;;;;;;;27.75;8.68;;;;;;;1.29;100.00;101851.25;5050123;28;20048;-75
2022/01/06 09:12:55;;;;;;;45.45;9.45;;;;;;;1.42;100.00;101861.06;5054479;28;20040;-74
2022/01/06 09:15:20;;;;;;;26.58;9.15;;;;;;;1.44;100.00;101864.38;5043463;28;20088;-72
2022/01/06 09:17:46;;;;;;;29.63;7.95;;;;;;;1.65;100.00;101858.63;5045785;28;20135;-72
2022/01/06 09:20:12;;;;;;;42.05;8.63;;;;;;;1.59;100.00;101857.63;5049883;28;20445;-73
2022/01/06 09:22:37;;;;;;;31.35;8.02;;;;;;;1.62;100.00;101867.13;5047732;28;20120;-72
2022/01/06 09:25:03;;;;;;;32.58;7.95;;;;;;;1.79;100.00;101862.84;5048246;28;20422;-73
2022/01/06 09:27:30;;;;;;;28.58;7.40;;;;;;;1.88;100.00;101854.50;5046642;28;20032;-73
2022/01/06 09:29:56;;;;;;;32.65;7.57;;;;;;;1.95;100.00;101856.09;5046991;28;20053;-73
2022/01/06 09:32:21;;;;;;;31.23;6.57;;;;;;;2.15;100.00;101866.69;5042869;28;20060;-74
2022/01/06 09:34:46;;;;;;;51.97;9.05;;;;;;;2.15;100.00;101865.84;5046828;28;20116;-71
2022/01/06 09:37:12;;;;;;;28.95;7.75;;;;;;;2.15;100.00;101869.38;5047554;28;20115;-72
2022/01/06 09:39:38;;;;;;;26.77;6.90;;;;;;;2.26;100.00;101867.78;5049412;28;20052;-73
2022/01/06 09:42:04;;;;;;;30.10;7.65;;;;;;;2.32;100.00;101876.84;5051691;28;20036;-72
2022/01/06 09:44:31;;;;;;;27.95;7.05;;;;;;;2.45;100.00;101876.72;5057386;28;20036;-74
2022/01/06 09:46:56;;;;;;;26.70;7.07;;;;;;;2.43;100.00;101882.31;5049157;28;20386;-73
2022/01/06 09:49:23;;;;;;;34.15;6.78;;;;;;;2.56;100.00;101883.22;5051631;28;20036;-73
2022/01/06 09:51:49;;;;;;;40.00;7.75;;;;;;;2.56;100.00;101884.06;5039982;28;20037;-72
2022/01/06 09:54:14;;;;;;;34.45;8.30;;;;;;;2.70;100.00;101884.69;5040603;28;20040;-74
2022/01/06 09:56:40;;;;;;;27.85;7.13;;;;;;;2.67;100.00;101891.34;5045950;28;20458;-73
2022/01/06 09:59:05;;;;;;;28.63;6.88;;;;;;;2.83;100.00;101889.13;5044043;28;20143;-73
2022/01/06 10:01:31;;;;;;;33.03;8.00;;;;;;;2.93;100.00;101889.41;5045864;28;20052;-72
2022/01/06 10:03:56;;;;;;;25.83;6.90;;;;;;;2.99;100.00;101896.56;5043536;28;20408;-72
2022/01/06 10:06:25;;;;;;;35.42;7.90;;;;;;;2.97;100.00;101885.22;5043091;28;20481;-73
2022/01/06 10:09:01;;;;;;;29.35;8.10;;;;;;;3.05;100.00;101890.28;5043780;28;20139;-73
2022/01/06 10:11:29;;;;;;;25.60;6.90;;;;;;;3.01;100.00;101893.66;5049002;28;20037;-72
2022/01/06 10:13:59;;;;;;;30.08;6.88;;;;;;;3.06;100.00;101891.94;5042121;28;20126;-73
2022/01/06 10:16:28;;;;;;;30.50;7.72;;;;;;;3.21;100.00;101896.09;5045335;28;20234;-73
2022/01/06 10:18:55;;;;;;;26.00;7.05;;;;;;;3.44;100.00;101889.97;5036943;28;20045;-73
2022/01/06 10:21:20;;;;;;;30.08;7.60;;;;;;;3.58;100.00;101881.44;5043935;28;20064;-73
2022/01/06 10:23:57;;;;;;;30.85;7.05;;;;;;;3.33;100.00;101883.47;5044521;28;20472;-73
2022/01/06 10:26:23;;;;;;;28.40;7.18;;;;;;;3.63;100.00;101870.75;5046428;28;20478;-72
2022/01/06 10:28:51;;;;;;;32.45;6.90;;;;;;;3.62;100.00;101876.41;5045504;28;20075;-73
2022/01/06 10:31:18;;;;;;;23.63;5.97;;;;;;;3.62;100.00;101874.50;5051188;28;20037;-72
2022/01/06 10:33:43;;;;;;;28.13;7.28;;;;;;;3.72;100.00;101867.72;5053603;28;20040;-73
2022/01/06 10:36:09;;;;;;;24.38;6.22;;;;;;;3.77;100.00;101865.16;5061826;28;20116;-73
2022/01/06 10:38:36;;;;;;;22.05;6.07;;;;;;;3.82;100.00;101866.09;5072901;28;20032;-72
2022/01/06 10:41:09;;;;;;;22.90;6.13;;;;;;;3.91;100.00;101861.19;5073080;28;20047;-72
2022/01/06 10:43:35;;;;;;;25.65;6.68;;;;;;;3.93;100.00;101867.19;5071119;28;20048;-73
2022/01/06 10:46:02;;;;;;;30.13;6.05;;;;;;;4.03;100.00;101853.91;5073234;28;20032;-71
2022/01/06 10:48:28;;;;;;;16.27;5.10;;;;;;;3.94;100.00;101859.91;5072094;28;20058;-72
2022/01/06 10:50:57;;;;;;;25.15;6.10;;;;;;;4.15;100.00;101853.91;5069048;28;20985;-71
2022/01/06 10:53:22;;;;;;;31.42;6.18;;;;;;;4.27;100.00;101852.00;5064902;28;20048;-73
2022/01/06 10:55:48;;;;;;;32.50;6.22;;;;;;;4.22;100.00;101851.09;5063581;28;20037;-71
2022/01/06 10:58:25;;;;;;;22.17;6.22;;;;;;;4.15;100.00;101856.59;5063686;28;20075;-72
2022/01/06 11:01:00;;;;;;;26.17;5.40;;;;;;;4.25;100.00;101853.31;5064976;28;20055;-72
2022/01/06 11:03:28;;;;;;;26.13;5.45;;;;;;;4.04;100.00;101860.13;5064416;28;20050;-72
2022/01/06 11:05:59;;;;;;;28.88;5.22;;;;;;;4.12;100.00;101853.56;5063148;28;20321;-72
2022/01/06 11:08:27;;;;;;;27.20;6.50;;;;;;;4.18;100.00;101852.59;5065445;28;20040;-72
2022/01/06 11:11:15;;;;;;;26.35;5.50;;;;;;;4.26;100.00;101849.56;5069329;28;20748;-70
2022/01/06 11:13:44;;;;;;;24.38;5.22;;;;;;;4.30;100.00;101856.13;5068527;28;20401;-72
2022/01/06 11:16:12;;;;;;;24.60;6.22;;;;;;;4.28;100.00;101858.25;5070112;28;20045;-72
2022/01/06 11:18:53;;;;;;;21.98;5.25;;;;;;;4.41;100.00;101852.59;5068000;28;20127;-71
2022/01/06 11:21:24;;;;;;;21.48;4.78;;;;;;;4.62;100.00;101858.41;5069711;28;20056;-72
2022/01/06 11:24:00;;;;;;;23.77;5.55;;;;;;;4.82;100.00;101858.81;5068345;28;20041;-72